Time;durP1;ratioP1;P1;durP2;ratioP2;P2;SDS_P1;SDS_P2;PMS_P1;PMS_P2;Temp;Humidity;BMP_temperature;BMP_pressure;BME280_temperature;BME280_humidity;BME280_pressure;Samples;Min_cycle;Max_cycle;Signal;HPM_P1;HPM_P2
2022/04/11 00:00:23;;;;;;;6.03;5.53;;;;;;;3.83;73.68;94446.16;5022971;28;20218;-68
2022/04/11 00:02:49;;;;;;;5.50;5.00;;;;;;;3.85;73.74;94449.47;5028993;28;20205;-68
2022/04/11 00:05:15;;;;;;;6.53;5.50;;;;;;;3.87;73.76;94447.56;5030416;28;20218;-68
2022/04/11 00:07:40;;;;;;;6.30;5.70;;;;;;;3.88;73.15;94448.41;5033526;28;20292;-67
2022/04/11 00:10:06;;;;;;;6.97;5.83;;;;;;;3.81;73.43;94453.25;5036050;28;20224;-69
2022/04/11 00:12:35;;;;;;;8.73;6.07;;;;;;;3.83;73.38;94458.34;5042511;28;20633;-69
2022/04/11 00:15:04;;;;;;;6.27;5.67;;;;;;;3.88;73.01;94464.81;5034210;28;20202;-67
2022/04/11 00:17:30;;;;;;;5.77;5.27;;;;;;;3.87;73.52;94452.75;5040353;28;20238;-67
2022/04/11 00:19:55;;;;;;;6.20;5.60;;;;;;;3.92;72.97;94474.03;5022776;28;20349;-67
2022/04/11 00:22:22;;;;;;;5.47;4.93;;;;;;;3.89;72.53;94458.66;5025998;28;20246;-67
2022/04/11 00:24:52;;;;;;;5.97;5.37;;;;;;;3.97;72.58;94479.69;5030054;28;20248;-68
2022/04/11 00:27:18;;;;;;;5.17;4.67;;;;;;;3.86;72.67;94466.72;5011999;28;20211;-68
2022/04/11 00:29:44;;;;;;;5.80;5.30;;;;;;;3.95;72.29;94478.16;5014427;28;20199;-67
2022/04/11 00:32:09;;;;;;;6.10;5.60;;;;;;;3.98;72.08;94485.69;5029040;28;20221;-68
2022/04/11 00:34:35;;;;;;;5.50;5.00;;;;;;;3.93;71.92;94475.69;5034404;28;20236;-68
2022/04/11 00:37:00;;;;;;;6.23;5.10;;;;;;;3.90;72.33;94480.28;5037831;28;20229;-68
2022/04/11 00:39:26;;;;;;;5.30;4.60;;;;;;;4.01;71.43;94495.03;5034953;28;20222;-68
2022/04/11 00:41:51;;;;;;;5.37;4.87;;;;;;;4.08;70.53;94496.19;5033517;28;20221;-67
2022/04/11 00:44:17;;;;;;;5.33;4.80;;;;;;;4.06;70.82;94493.69;5032734;28;20229;-67
2022/04/11 00:46:42;;;;;;;5.87;4.73;;;;;;;4.11;70.32;94504.56;5033714;28;20368;-67
2022/04/11 00:49:09;;;;;;;4.67;4.20;;;;;;;4.11;69.92;94507.16;5037573;28;20222;-67
2022/04/11 00:51:34;;;;;;;6.10;4.23;;;;;;;4.13;69.69;94504.44;5039174;28;20218;-67
2022/04/11 00:54:01;;;;;;;6.73;4.63;;;;;;;4.14;69.21;94506.09;5035652;28;20214;-67
2022/04/11 00:56:31;;;;;;;6.30;4.77;;;;;;;4.20;69.65;94518.63;5037513;28;20233;-67
2022/04/11 00:59:04;;;;;;;5.77;4.87;;;;;;;4.18;69.25;94523.94;5042159;28;20225;-67
2022/04/11 01:01:30;;;;;;;5.07;4.30;;;;;;;4.15;69.04;94524.19;5032838;28;20230;-67
2022/04/11 01:03:57;;;;;;;4.70;4.30;;;;;;;4.22;68.25;94523.69;5042257;28;20224;-68
2022/04/11 01:06:22;;;;;;;4.47;4.07;;;;;;;4.14;67.96;94522.56;5040392;28;20209;-68
2022/04/11 01:08:48;;;;;;;4.90;4.40;;;;;;;4.17;67.67;94526.66;5031508;28;20239;-68
2022/04/11 01:11:13;;;;;;;4.70;4.30;;;;;;;4.15;68.17;94528.56;5040571;28;20313;-68
2022/04/11 01:13:41;;;;;;;4.33;3.93;;;;;;;4.22;66.97;94532.31;5035520;28;20268;-68
2022/04/11 01:16:07;;;;;;;5.57;4.13;;;;;;;4.18;67.01;94539.56;5032398;28;20288;-68
2022/04/11 01:18:37;;;;;;;4.30;3.83;;;;;;;4.21;66.50;94556.69;5037999;28;20233;-69
2022/04/11 01:21:04;;;;;;;6.13;4.03;;;;;;;4.25;66.23;94552.91;5021052;28;20218;-68
2022/04/11 01:23:29;;;;;;;4.70;4.20;;;;;;;4.18;66.84;94559.53;5023897;28;20234;-69
2022/04/11 01:25:56;;;;;;;7.80;4.17;;;;;;;4.16;67.49;94566.66;5018695;28;20226;-68
2022/04/11 01:28:23;;;;;;;4.23;3.83;;;;;;;4.28;66.18;94567.44;5012353;28;20231;-69
2022/04/11 01:30:53;;;;;;;4.30;3.67;;;;;;;4.25;66.46;94573.72;5018037;28;20235;-68
2022/04/11 01:33:21;;;;;;;4.40;4.00;;;;;;;4.31;66.30;94565.41;5019085;28;20223;-69
2022/04/11 01:35:47;;;;;;;5.87;3.60;;;;;;;4.35;65.77;94573.78;5024232;28;20202;-69
2022/04/11 01:38:13;;;;;;;4.37;3.97;;;;;;;4.36;65.91;94584.09;5018011;28;20240;-68
2022/04/11 01:40:47;;;;;;;4.20;3.77;;;;;;;4.29;65.54;94577.72;5019931;28;20341;-68
2022/04/11 01:43:13;;;;;;;5.53;4.30;;;;;;;4.32;65.98;94587.06;5017378;28;20230;-69
2022/04/11 01:45:38;;;;;;;5.63;3.67;;;;;;;4.31;65.90;94582.81;5020051;28;20259;-68
2022/04/11 01:48:04;;;;;;;5.57;3.83;;;;;;;4.32;66.63;94594.84;5036028;28;20224;-68
2022/04/11 01:50:29;;;;;;;4.03;3.73;;;;;;;4.36;66.12;94597.09;5000715;28;20266;-69
2022/04/11 01:52:55;;;;;;;4.30;3.80;;;;;;;4.40;65.88;94601.09;5012821;28;20261;-69
2022/04/11 01:55:20;;;;;;;3.87;3.47;;;;;;;4.39;65.42;94602.06;5029344;28;20229;-68
2022/04/11 01:57:45;;;;;;;5.20;3.60;;;;;;;4.37;65.44;94605.72;5037107;28;20280;-69
2022/04/11 02:00:11;;;;;;;6.23;3.40;;;;;;;4.40;65.43;94608.09;5019633;28;20225;-69
2022/04/11 02:02:37;;;;;;;4.10;3.70;;;;;;;4.37;65.86;94614.34;5030661;28;20216;-67
2022/04/11 02:05:03;;;;;;;4.30;3.77;;;;;;;4.38;65.49;94625.59;5037694;28;20231;-68
2022/04/11 02:07:28;;;;;;;3.50;3.20;;;;;;;4.43;65.16;94621.66;5032601;28;20221;-67
2022/04/11 02:09:54;;;;;;;3.50;3.20;;;;;;;4.44;65.22;94622.50;5028424;28;20227;-67
2022/04/11 02:12:19;;;;;;;3.93;3.53;;;;;;;4.45;65.46;94628.53;5038323;28;20206;-68
2022/04/11 02:14:45;;;;;;;5.40;3.80;;;;;;;4.46;65.44;94624.97;5041317;28;20213;-68
2022/04/11 02:17:10;;;;;;;3.73;3.13;;;;;;;4.52;65.14;94637.53;5023508;28;20261;-68
2022/04/11 02:19:36;;;;;;;4.17;3.73;;;;;;;4.56;65.53;94644.94;5028422;28;20225;-66
2022/04/11 02:22:01;;;;;;;4.23;3.57;;;;;;;4.58;65.29;94655.25;5043555;28;20232;-68
2022/04/11 02:24:26;;;;;;;3.97;3.20;;;;;;;4.62;64.96;94654.88;5038809;28;20235;-69
2022/04/11 02:26:52;;;;;;;4.10;3.70;;;;;;;4.56;64.44;94657.13;5038204;28;20336;-67
2022/04/11 02:29:17;;;;;;;4.43;3.40;;;;;;;4.52;64.09;94656.56;5024944;28;20234;-68
2022/04/11 02:31:43;;;;;;;3.87;3.40;;;;;;;4.49;63.84;94662.03;5032979;28;20237;-67
2022/04/11 02:34:08;;;;;;;4.07;3.67;;;;;;;4.43;64.06;94662.50;5029533;28;20245;-67
2022/04/11 02:36:34;;;;;;;3.53;2.90;;;;;;;4.40;64.49;94680.97;5026677;28;20256;-70
2022/04/11 02:38:59;;;;;;;3.50;3.20;;;;;;;4.45;64.50;94678.81;5032152;28;20228;-68
2022/04/11 02:41:24;;;;;;;3.70;3.30;;;;;;;4.36;64.96;94683.00;5017729;28;20230;-68
2022/04/11 02:43:50;;;;;;;3.27;2.97;;;;;;;4.40;65.28;94684.41;5033558;28;20341;-68
2022/04/11 02:46:15;;;;;;;4.27;3.60;;;;;;;4.49;65.34;94695.88;5042887;28;20226;-68
2022/04/11 02:48:41;;;;;;;5.17;3.43;;;;;;;4.47;66.00;94689.94;5035935;28;20221;-69
2022/04/11 02:51:07;;;;;;;2.97;2.77;;;;;;;4.47;66.14;94694.34;5020925;28;20221;-69
2022/04/11 02:53:32;;;;;;;4.23;2.73;;;;;;;4.50;65.28;94699.28;5019126;28;20245;-69
2022/04/11 02:55:57;;;;;;;4.93;2.90;;;;;;;4.47;65.64;94705.56;5017888;28;20238;-70
2022/04/11 02:58:23;;;;;;;4.57;3.10;;;;;;;4.46;65.64;94697.88;5016179;28;20280;-69
2022/04/11 03:00:48;;;;;;;3.90;3.13;;;;;;;4.49;66.05;94715.84;5033857;28;20275;-69
2022/04/11 03:03:14;;;;;;;3.60;3.30;;;;;;;4.53;65.56;94712.06;5044105;28;20256;-70
2022/04/11 03:05:39;;;;;;;3.87;2.90;;;;;;;4.56;65.17;94714.41;5039048;28;20244;-68
2022/04/11 03:08:05;;;;;;;3.33;2.80;;;;;;;4.52;64.74;94702.63;5023686;28;20226;-69
2022/04/11 03:10:30;;;;;;;3.33;3.03;;;;;;;4.59;64.89;94703.75;5017857;28;20226;-69
2022/04/11 03:12:56;;;;;;;3.70;3.17;;;;;;;4.67;64.37;94716.16;5022936;28;20252;-69
2022/04/11 03:15:21;;;;;;;3.30;3.00;;;;;;;4.59;64.25;94706.34;5023297;28;20215;-70
2022/04/11 03:17:47;;;;;;;3.00;2.80;;;;;;;4.55;65.28;94721.41;5039638;28;20344;-70
2022/04/11 03:20:12;;;;;;;3.93;3.10;;;;;;;4.52;64.27;94728.66;5040273;28;20221;-69
2022/04/11 03:22:38;;;;;;;3.20;2.90;;;;;;;4.47;65.52;94731.59;5040527;28;20218;-69
2022/04/11 03:25:04;;;;;;;4.53;2.87;;;;;;;4.46;65.40;94731.72;5038043;28;20221;-69
2022/04/11 03:27:30;;;;;;;3.83;3.20;;;;;;;4.32;66.44;94733.63;5043835;28;20221;-68
2022/04/11 03:29:55;;;;;;;3.70;3.40;;;;;;;4.42;65.96;94738.94;5044451;28;20267;-69
2022/04/11 03:32:21;;;;;;;4.90;3.53;;;;;;;4.33;66.26;94740.50;5040973;28;20241;-69
2022/04/11 03:34:46;;;;;;;3.47;3.17;;;;;;;4.27;66.72;94748.78;5048603;28;20225;-69
2022/04/11 03:37:12;;;;;;;4.00;3.60;;;;;;;4.30;66.91;94755.53;5033957;28;20286;-69
2022/04/11 03:39:37;;;;;;;4.13;3.73;;;;;;;4.36;66.76;94760.28;5038424;28;20228;-69
2022/04/11 03:42:03;;;;;;;4.10;3.40;;;;;;;4.38;67.16;94769.63;5033638;28;20216;-67
2022/04/11 03:44:28;;;;;;;4.20;3.80;;;;;;;4.41;67.38;94766.78;5043398;28;20311;-66
2022/04/11 03:46:54;;;;;;;5.27;3.43;;;;;;;4.42;67.05;94771.00;5044569;28;20230;-66
2022/04/11 03:49:19;;;;;;;5.80;3.77;;;;;;;4.44;67.18;94770.91;5048157;28;20328;-68
2022/04/11 03:51:45;;;;;;;5.30;3.67;;;;;;;4.40;66.81;94770.31;5046535;28;20303;-67
2022/04/11 03:54:10;;;;;;;3.73;3.43;;;;;;;4.40;66.79;94769.47;5047518;28;20311;-67
2022/04/11 03:56:36;;;;;;;4.97;3.77;;;;;;;4.39;66.74;94763.44;5038580;28;20193;-66
2022/04/11 03:59:02;;;;;;;4.47;3.93;;;;;;;4.39;66.04;94766.06;5044587;28;20236;-67
2022/04/11 04:01:27;;;;;;;5.10;4.20;;;;;;;4.45;66.37;94771.72;5032374;28;20264;-69
2022/04/11 04:03:53;;;;;;;4.20;3.77;;;;;;;4.44;66.74;94773.50;5037327;28;20229;-67
2022/04/11 04:06:19;;;;;;;4.30;3.80;;;;;;;4.42;65.33;94776.22;5038185;28;20214;-67
2022/04/11 04:08:44;;;;;;;4.20;3.63;;;;;;;4.41;65.06;94785.00;5037559;28;20232;-68
2022/04/11 04:11:11;;;;;;;8.40;4.40;;;;;;;4.32;64.94;94774.47;5034350;28;20222;-67
2022/04/11 04:13:36;;;;;;;4.00;3.60;;;;;;;4.30;65.12;94791.97;5032217;28;20221;-67
2022/04/11 04:16:01;;;;;;;5.37;3.90;;;;;;;4.37;64.34;94790.56;5039760;28;20232;-66
2022/04/11 04:18:27;;;;;;;5.87;4.13;;;;;;;4.43;63.30;94798.69;5040237;28;20252;-66
2022/04/11 04:20:52;;;;;;;4.67;3.57;;;;;;;4.45;62.84;94806.41;5040429;28;20206;-66
2022/04/11 04:23:18;;;;;;;5.00;3.83;;;;;;;4.41;62.61;94808.41;5038407;28;20222;-68
2022/04/11 04:25:43;;;;;;;4.83;3.67;;;;;;;4.40;63.05;94813.72;5041836;28;20232;-68
2022/04/11 04:28:09;;;;;;;5.83;3.93;;;;;;;4.42;62.95;94799.66;5036000;28;20233;-68
2022/04/11 04:30:34;;;;;;;5.63;4.03;;;;;;;4.43;61.65;94816.91;5041577;28;20337;-64
2022/04/11 04:33:00;;;;;;;7.87;3.97;;;;;;;4.48;60.84;94819.16;5036196;28;20210;-61
2022/04/11 04:35:26;;;;;;;5.90;4.20;;;;;;;4.43;61.81;94821.31;5034875;28;20225;-61
2022/04/11 04:37:52;;;;;;;4.90;4.27;;;;;;;4.45;61.90;94832.44;5024594;28;20230;-61
2022/04/11 04:40:17;;;;;;;6.17;4.40;;;;;;;4.53;61.72;94826.63;5023222;28;20227;-61
2022/04/11 04:42:43;;;;;;;5.17;4.33;;;;;;;4.53;61.39;94830.06;5026903;28;20221;-60
2022/04/11 04:45:09;;;;;;;4.97;4.20;;;;;;;4.49;62.34;94827.81;5036074;28;20244;-61
2022/04/11 04:47:34;;;;;;;5.00;4.47;;;;;;;4.53;61.76;94848.28;5040064;28;20248;-61
2022/04/11 04:50:00;;;;;;;6.07;4.13;;;;;;;4.48;61.11;94842.59;5038030;28;20222;-63
2022/04/11 04:52:25;;;;;;;5.60;4.30;;;;;;;4.55;60.86;94858.59;5038041;28;20229;-65
2022/04/11 04:54:51;;;;;;;6.07;4.93;;;;;;;4.53;60.74;94855.28;5038747;28;20222;-64
2022/04/11 04:57:16;;;;;;;5.67;4.80;;;;;;;4.54;61.09;94857.75;5037391;28;20205;-63
2022/04/11 04:59:42;;;;;;;7.33;4.77;;;;;;;4.57;60.91;94865.34;5044573;28;20218;-63
2022/04/11 05:02:07;;;;;;;5.00;4.50;;;;;;;4.67;60.22;94869.81;5041714;28;20229;-63
2022/04/11 05:04:33;;;;;;;7.70;4.77;;;;;;;4.66;60.41;94866.41;5035469;28;20230;-63
2022/04/11 05:06:58;;;;;;;5.83;4.80;;;;;;;4.66;61.23;94876.00;5031933;28;20229;-60
2022/04/11 05:09:24;;;;;;;5.33;4.30;;;;;;;4.68;60.44;94877.53;5033896;28;20201;-60
2022/04/11 05:11:49;;;;;;;5.73;5.23;;;;;;;4.72;60.08;94891.13;5034992;28;20218;-60
2022/04/11 05:14:15;;;;;;;6.20;4.97;;;;;;;4.76;60.01;94882.16;5035626;28;20218;-63
2022/04/11 05:16:40;;;;;;;5.90;4.93;;;;;;;4.90;59.84;94888.88;5038539;28;20233;-64
2022/04/11 05:19:06;;;;;;;5.70;5.20;;;;;;;4.93;60.25;94888.63;5038882;28;20222;-63
2022/04/11 05:21:31;;;;;;;8.33;4.90;;;;;;;5.02;58.33;94888.72;5029838;28;20222;-65
2022/04/11 05:23:57;;;;;;;6.27;5.03;;;;;;;4.82;58.54;94900.72;5031646;28;20342;-61
2022/04/11 05:26:22;;;;;;;5.77;5.17;;;;;;;4.88;58.75;94901.19;5032815;28;20226;-61
2022/04/11 05:28:51;;;;;;;6.07;4.90;;;;;;;4.88;59.23;94895.97;5031200;28;20302;-62
2022/04/11 05:31:17;;;;;;;7.03;5.20;;;;;;;4.99;58.10;94888.97;5037511;28;20213;-63
2022/04/11 05:33:43;;;;;;;7.87;5.57;;;;;;;4.98;57.49;94902.13;5039509;28;20246;-62
2022/04/11 05:36:09;;;;;;;6.10;5.43;;;;;;;4.94;58.48;94898.09;5044257;28;20635;-62
2022/04/11 05:38:35;;;;;;;6.13;5.07;;;;;;;4.99;58.36;94899.38;5035041;28;20256;-62
2022/04/11 05:41:00;;;;;;;6.03;5.40;;;;;;;4.95;58.16;94905.81;5034229;28;20296;-62
2022/04/11 05:43:26;;;;;;;7.67;5.77;;;;;;;4.88;57.80;94911.59;5042501;28;20221;-63
2022/04/11 05:45:51;;;;;;;8.43;5.00;;;;;;;4.77;58.00;94905.44;5036811;28;20229;-64
2022/04/11 05:48:17;;;;;;;6.40;5.53;;;;;;;4.77;57.95;94907.22;5038492;28;20197;-63
2022/04/11 05:50:42;;;;;;;5.63;5.10;;;;;;;4.81;57.91;94909.50;5037254;28;20189;-63
2022/04/11 05:53:08;;;;;;;6.47;5.60;;;;;;;4.87;57.49;94916.00;5040877;28;20221;-64
2022/04/11 05:55:34;;;;;;;8.20;5.30;;;;;;;4.94;57.46;94913.72;5023203;28;20213;-64
2022/04/11 05:57:59;;;;;;;5.63;5.13;;;;;;;4.88;57.71;94916.81;5010629;28;20241;-63
2022/04/11 06:00:25;;;;;;;5.97;5.23;;;;;;;4.89;56.96;94923.69;5013882;28;20261;-63
2022/04/11 06:02:51;;;;;;;6.97;6.10;;;;;;;4.79;57.00;94918.38;5012927;28;20218;-62
2022/04/11 06:05:16;;;;;;;6.30;5.70;;;;;;;4.76;57.06;94929.84;5039650;28;20260;-62
2022/04/11 06:07:42;;;;;;;6.60;5.63;;;;;;;4.75;57.04;94927.34;5035320;28;20229;-63
2022/04/11 06:10:08;;;;;;;9.83;6.07;;;;;;;4.67;57.43;94940.97;5048110;28;20267;-63
2022/04/11 06:12:37;;;;;;;10.80;5.80;;;;;;;4.72;56.69;94930.19;5036702;28;20309;-63
2022/04/11 06:15:03;;;;;;;5.63;5.13;;;;;;;4.90;56.87;94933.16;5021495;28;20218;-62
2022/04/11 06:17:29;;;;;;;8.03;5.30;;;;;;;4.99;57.13;94935.03;5043385;28;20251;-62
2022/04/11 06:19:56;;;;;;;5.63;5.13;;;;;;;5.02;56.00;94940.00;5028376;28;20226;-63
2022/04/11 06:22:23;;;;;;;6.50;5.23;;;;;;;4.84;57.21;94937.09;5013663;28;20260;-63
2022/04/11 06:24:49;;;;;;;5.97;4.87;;;;;;;4.94;56.11;94942.38;5030733;28;20229;-62
2022/04/11 06:27:15;;;;;;;5.80;5.00;;;;;;;5.11;56.22;94934.09;5042579;28;20233;-63
2022/04/11 06:29:41;;;;;;;7.33;5.50;;;;;;;5.17;56.31;94949.25;5038064;28;20214;-62
2022/04/11 06:32:07;;;;;;;6.27;5.03;;;;;;;5.11;55.83;94944.53;5034577;28;20226;-66
2022/04/11 06:34:34;;;;;;;6.77;5.20;;;;;;;5.22;56.19;94954.09;5027259;28;20273;-63
2022/04/11 06:37:00;;;;;;;5.50;5.00;;;;;;;5.09;56.43;94944.63;5017835;28;20325;-64
2022/04/11 06:39:25;;;;;;;7.13;5.23;;;;;;;5.23;56.05;94942.72;5021861;28;20317;-64
2022/04/11 06:41:51;;;;;;;6.13;5.47;;;;;;;5.33;55.54;94943.66;5037038;28;20217;-62
2022/04/11 06:44:16;;;;;;;6.90;5.53;;;;;;;5.33;55.76;94937.63;5022841;28;20280;-63
2022/04/11 06:46:42;;;;;;;7.40;5.87;;;;;;;5.22;55.96;94956.72;5030772;28;20316;-64
2022/04/11 06:49:08;;;;;;;9.93;5.87;;;;;;;5.26;55.56;94958.94;5035307;28;20229;-64
2022/04/11 06:51:33;;;;;;;8.70;5.80;;;;;;;5.40;55.47;94959.63;5028752;28;20315;-65
2022/04/11 06:53:59;;;;;;;5.60;5.07;;;;;;;5.24;55.11;94955.66;5014849;28;20218;-63
2022/04/11 06:56:25;;;;;;;6.90;4.90;;;;;;;5.24;55.09;94950.44;5017934;28;20317;-62
2022/04/11 06:58:50;;;;;;;7.67;5.80;;;;;;;5.31;55.24;94961.19;5015378;28;20231;-65
2022/04/11 07:01:16;;;;;;;6.80;5.70;;;;;;;5.38;54.75;94953.72;5017116;28;20238;-63
2022/04/11 07:03:41;;;;;;;7.20;5.40;;;;;;;5.52;54.58;94971.69;5013757;28;20249;-63
2022/04/11 07:06:08;;;;;;;6.60;5.53;;;;;;;5.60;54.20;94961.47;5020758;28;20264;-69
2022/04/11 07:08:33;;;;;;;6.63;5.00;;;;;;;5.55;54.06;94950.59;5039857;28;20237;-63
2022/04/11 07:11:02;;;;;;;5.53;5.03;;;;;;;5.69;54.17;94984.25;5018595;28;20234;-64
2022/04/11 07:13:27;;;;;;;5.53;5.00;;;;;;;5.65;53.37;94969.78;5015255;28;20229;-69
2022/04/11 07:15:55;;;;;;;5.63;5.13;;;;;;;5.79;53.27;94968.66;5023918;28;20226;-68
2022/04/11 07:18:20;;;;;;;5.63;5.07;;;;;;;5.78;53.20;94958.34;5001567;28;20237;-64
2022/04/11 07:20:46;;;;;;;8.37;5.43;;;;;;;5.93;53.54;94965.81;5036430;28;20225;-66
2022/04/11 07:23:12;;;;;;;8.97;5.07;;;;;;;6.08;52.85;94963.72;5034330;28;20279;-65
2022/04/11 07:25:38;;;;;;;5.90;5.13;;;;;;;6.22;51.91;94948.69;5034951;28;20261;-61
2022/04/11 07:28:05;;;;;;;7.17;5.10;;;;;;;6.30;50.87;94951.50;5030355;28;20255;-63
2022/04/11 07:30:31;;;;;;;6.83;5.23;;;;;;;6.23;49.82;94959.03;5036782;28;20234;-69
2022/04/11 07:32:57;;;;;;;5.43;4.30;;;;;;;6.43;49.66;94978.25;5033048;28;20293;-70
2022/04/11 07:35:23;;;;;;;5.80;4.57;;;;;;;6.51;49.72;94969.78;5038564;28;20288;-62
2022/04/11 07:37:49;;;;;;;6.30;4.20;;;;;;;6.48;49.95;94962.22;5036627;28;20222;-68
2022/04/11 07:40:14;;;;;;;4.73;3.87;;;;;;;6.57;49.91;94974.50;5034076;28;20226;-64
2022/04/11 07:42:40;;;;;;;6.00;4.03;;;;;;;6.69;49.76;94973.47;5028863;28;20217;-64
2022/04/11 07:45:06;;;;;;;6.23;4.70;;;;;;;6.78;49.77;94977.09;5018161;28;20237;-61
2022/04/11 07:47:31;;;;;;;6.40;4.83;;;;;;;7.00;48.97;94989.16;4999813;28;20245;-63
2022/04/11 07:49:57;;;;;;;5.13;4.63;;;;;;;7.05;48.26;94987.81;5015679;28;20236;-62
2022/04/11 07:52:23;;;;;;;5.77;4.77;;;;;;;6.99;47.87;94992.75;5021906;28;20240;-63
2022/04/11 07:54:48;;;;;;;5.83;4.57;;;;;;;6.88;48.54;94992.81;5024542;28;20221;-69
2022/04/11 07:57:17;;;;;;;8.10;4.83;;;;;;;7.14;48.49;94993.22;5035864;28;20217;-64
2022/04/11 07:59:43;;;;;;;6.60;5.27;;;;;;;7.42;47.35;95010.81;5043187;28;20228;-61
2022/04/11 08:02:08;;;;;;;5.57;4.97;;;;;;;7.23;47.08;95006.34;5033188;28;20221;-60
2022/04/11 08:04:37;;;;;;;5.53;5.03;;;;;;;7.22;47.62;95009.91;5035441;28;20229;-66
2022/04/11 08:07:03;;;;;;;5.03;4.53;;;;;;;7.50;47.10;95013.59;5040806;28;20229;-75
2022/04/11 08:09:29;;;;;;;6.30;4.67;;;;;;;7.32;46.93;95016.97;5032851;28;20317;-65
2022/04/11 08:11:55;;;;;;;6.13;4.87;;;;;;;7.30;47.04;95017.09;5037234;28;20214;-65
2022/04/11 08:14:20;;;;;;;4.27;3.87;;;;;;;7.40;46.35;95017.13;5035172;28;20240;-61
2022/04/11 08:16:46;;;;;;;4.73;3.77;;;;;;;7.45;45.89;95033.25;5035362;28;20251;-65
2022/04/11 08:19:12;;;;;;;8.87;4.37;;;;;;;7.23;46.46;95019.41;5039572;28;20310;-64
2022/04/11 08:21:37;;;;;;;6.23;4.17;;;;;;;7.21;45.70;95017.88;5031896;28;20230;-64
2022/04/11 08:24:03;;;;;;;8.20;4.80;;;;;;;7.40;46.69;95038.06;5040919;28;20213;-68
2022/04/11 08:26:29;;;;;;;7.77;5.07;;;;;;;7.35;46.40;95030.63;5025336;28;20222;-61
2022/04/11 08:28:57;;;;;;;5.57;4.57;;;;;;;7.43;45.93;95019.47;5022506;28;20226;-61
2022/04/11 08:31:23;;;;;;;4.63;4.10;;;;;;;7.50;46.05;95024.03;5031323;28;20214;-68
2022/04/11 08:33:48;;;;;;;6.17;4.33;;;;;;;7.87;45.30;95025.25;5033651;28;20218;-66
2022/04/11 08:36:13;;;;;;;5.30;4.10;;;;;;;8.18;43.98;95036.47;5030743;28;20194;-62
2022/04/11 08:38:39;;;;;;;4.83;4.37;;;;;;;8.00;44.00;95030.25;5041198;28;20206;-62
2022/04/11 08:41:13;;;;;;;5.27;4.20;;;;;;;7.83;44.07;95040.41;5028667;28;20260;-62
2022/04/11 08:43:38;;;;;;;5.00;4.37;;;;;;;7.98;44.40;95047.88;5050474;28;20233;-69
2022/04/11 08:46:05;;;;;;;6.80;4.70;;;;;;;7.99;44.41;95036.44;5030123;28;20226;-64
2022/04/11 08:48:31;;;;;;;7.00;4.47;;;;;;;8.14;44.39;95042.94;5017498;28;20272;-67
2022/04/11 08:50:57;;;;;;;5.60;4.43;;;;;;;8.10;43.79;95054.63;5027487;28;20265;-67
2022/04/11 08:53:22;;;;;;;6.13;4.47;;;;;;;8.04;43.86;95039.47;5036972;28;20217;-61
2022/04/11 08:55:53;;;;;;;6.00;4.10;;;;;;;8.18;43.85;95039.91;5030664;28;20225;-62
2022/04/11 08:58:18;;;;;;;5.40;4.90;;;;;;;8.15;43.90;95044.56;5025154;28;20219;-69
2022/04/11 09:00:45;;;;;;;5.13;4.60;;;;;;;8.41;43.67;95037.03;5018266;28;20303;-70
2022/04/11 09:03:10;;;;;;;5.63;4.37;;;;;;;8.22;43.89;95032.59;5024454;28;20205;-71
2022/04/11 09:05:36;;;;;;;5.57;4.60;;;;;;;8.37;43.64;95026.00;5041672;28;20292;-68
2022/04/11 09:08:01;;;;;;;5.17;4.50;;;;;;;8.27;43.28;95030.41;5030473;28;20283;-74
2022/04/11 09:10:32;;;;;;;5.63;4.20;;;;;;;8.26;42.88;95036.63;5033955;28;20234;-64
2022/04/11 09:13:03;;;;;;;5.37;4.33;;;;;;;8.09;43.09;95035.47;5032815;28;20225;-61
2022/04/11 09:15:29;;;;;;;5.00;4.43;;;;;;;7.91;43.50;95039.72;5033643;28;20333;-63
2022/04/11 09:17:56;;;;;;;5.30;4.80;;;;;;;7.87;43.34;95056.66;5036425;28;20259;-62
2022/04/11 09:20:27;;;;;;;6.67;4.47;;;;;;;7.57;43.90;95044.47;5020584;28;20234;-67
2022/04/11 09:22:53;;;;;;;4.30;3.90;;;;;;;7.62;43.63;95061.44;5017980;28;20255;-69
2022/04/11 09:25:24;;;;;;;5.40;4.33;;;;;;;7.66;43.45;95054.13;5025265;28;20284;-61
2022/04/11 09:28:07;;;;;;;6.20;4.50;;;;;;;7.67;43.21;95059.25;5031460;28;20233;-63
2022/04/11 09:30:32;;;;;;;7.30;4.40;;;;;;;7.85;43.37;95041.09;5033943;28;20958;-67
2022/04/11 09:32:58;;;;;;;5.30;4.80;;;;;;;8.06;43.62;95056.69;5016108;28;20364;-60
2022/04/11 09:35:28;;;;;;;5.60;4.60;;;;;;;8.04;42.74;95048.16;5032509;28;20285;-67
2022/04/11 09:38:13;;;;;;;6.83;4.40;;;;;;;8.13;42.72;95031.63;5033316;28;20233;-63
2022/04/11 09:40:40;;;;;;;4.90;4.40;;;;;;;8.26;42.43;95057.56;5033786;28;20229;-64
2022/04/11 09:43:07;;;;;;;7.17;4.50;;;;;;;8.28;41.87;95046.94;5041995;28;20545;-64
2022/04/11 09:45:32;;;;;;;5.30;4.57;;;;;;;8.20;41.50;95055.47;5033051;28;20248;-60
2022/04/11 09:48:05;;;;;;;5.00;4.17;;;;;;;8.14;42.15;95045.56;5044333;28;20225;-66
2022/04/11 09:50:31;;;;;;;5.10;4.27;;;;;;;8.29;41.43;95036.34;5023515;28;20318;-67
2022/04/11 09:53:33;;;;;;;4.03;3.63;;;;;;;8.36;40.61;95047.06;5036724;28;20247;-68
2022/04/11 09:56:05;;;;;;;5.10;4.00;;;;;;;8.37;40.04;95046.97;4965754;28;20262;-62
2022/04/11 09:58:33;;;;;;;6.47;3.67;;;;;;;8.58;40.50;95040.75;4959412;28;20224;-64
2022/04/11 10:01:02;;;;;;;5.03;3.47;;;;;;;8.73;39.93;95035.94;4965437;28;20235;-61
2022/04/11 10:03:29;;;;;;;4.40;4.00;;;;;;;9.14;38.94;95032.13;4964098;28;20231;-61
2022/04/11 10:05:55;;;;;;;4.30;3.42;;;;;;;9.72;37.39;95037.13;4949809;28;20219;-64
2022/04/11 10:08:26;;;;;;;4.33;3.50;;;;;;;10.07;36.86;95024.22;4964371;28;20236;-71
2022/04/11 10:10:54;;;;;;;8.80;4.25;;;;;;;10.21;37.13;95038.66;4967358;28;20283;-63
2022/04/11 10:13:20;;;;;;;5.55;3.80;;;;;;;9.96;36.75;95033.13;4969876;28;20295;-68
2022/04/11 10:15:47;;;;;;;3.95;3.28;;;;;;;9.87;37.62;95029.59;4966373;28;20255;-65
2022/04/11 10:18:15;;;;;;;2.95;2.65;;;;;;;10.13;37.23;95024.47;4965504;28;20231;-62
2022/04/11 10:20:48;;;;;;;3.83;3.35;;;;;;;9.94;36.12;95040.31;4964326;28;20272;-61
2022/04/11 10:23:40;;;;;;;4.00;3.40;;;;;;;9.77;36.35;95023.56;4961656;28;20231;-68
2022/04/11 10:26:16;;;;;;;4.70;3.63;;;;;;;9.64;37.59;95031.78;4979783;28;20231;-67
2022/04/11 10:28:46;;;;;;;5.47;3.77;;;;;;;9.51;37.87;95039.16;4952475;28;20336;-64
2022/04/11 10:31:14;;;;;;;4.30;3.47;;;;;;;9.41;37.48;95033.13;4951706;28;20220;-62
2022/04/11 10:33:39;;;;;;;4.38;3.50;;;;;;;9.80;36.49;95038.22;5019025;28;20241;-66
2022/04/11 10:36:30;;;;;;;3.60;3.30;;;;;;;10.22;36.15;95030.63;5043701;28;20254;-68
2022/04/11 10:39:14;;;;;;;3.63;3.20;;;;;;;10.30;35.44;95033.38;5030844;28;20230;-62
2022/04/11 10:41:58;;;;;;;5.15;3.55;;;;;;;10.59;35.94;95030.50;5018543;28;20280;-63
2022/04/11 10:44:44;;;;;;;4.00;3.70;;;;;;;10.27;35.62;95030.19;5044311;28;20229;-61
2022/04/11 10:47:09;;;;;;;4.20;3.20;;;;;;;10.10;35.83;95029.19;5045955;28;20231;-71
2022/04/11 10:49:53;;;;;;;3.50;3.20;;;;;;;10.35;35.08;95022.41;5032866;28;20230;-68
2022/04/11 10:52:33;;;;;;;4.10;3.30;;;;;;;10.16;36.11;95024.16;5038621;28;20316;-68
2022/04/11 10:55:14;;;;;;;3.87;3.57;;;;;;;9.82;35.98;95026.59;5036625;28;20213;-68
2022/04/11 10:57:47;;;;;;;3.53;3.13;;;;;;;9.91;35.86;95035.38;5036423;28;20279;-65
2022/04/11 11:00:20;;;;;;;3.67;3.37;;;;;;;10.01;36.01;95035.34;5043982;28;20209;-64
2022/04/11 11:02:52;;;;;;;3.90;3.33;;;;;;;10.04;36.17;95030.59;5035419;28;20213;-64
2022/04/11 11:05:28;;;;;;;3.30;2.60;;;;;;;10.02;35.27;95027.28;5031751;28;20276;-64
2022/04/11 11:08:12;;;;;;;2.87;2.60;;;;;;;9.71;34.86;95043.38;5032169;28;20320;-63
2022/04/11 11:11:17;;;;;;;3.27;2.93;;;;;;;9.72;35.77;95039.75;5017394;28;20257;-66
2022/04/11 11:13:43;;;;;;;2.87;2.50;;;;;;;9.67;35.13;95039.38;5029155;28;20221;-63
2022/04/11 11:16:11;;;;;;;3.93;3.43;;;;;;;9.94;35.53;95041.19;5027983;28;20229;-64
2022/04/11 11:18:46;;;;;;;3.70;2.77;;;;;;;10.54;34.12;95031.94;5023186;28;20235;-65
2022/04/11 11:21:12;;;;;;;3.60;3.13;;;;;;;10.63;34.66;95038.91;5025087;28;20680;-61
2022/04/11 11:23:38;;;;;;;3.63;2.75;;;;;;;10.54;34.70;95026.69;5035823;28;20209;-59
2022/04/11 11:26:12;;;;;;;5.00;3.07;;;;;;;10.26;34.53;95031.97;5041910;28;20229;-66
2022/04/11 11:28:42;;;;;;;3.20;2.90;;;;;;;10.23;34.60;95034.91;5038451;28;20237;-67
2022/04/11 11:31:07;;;;;;;3.87;3.10;;;;;;;10.43;34.16;95037.44;5041466;28;20296;-65
2022/04/11 11:33:33;;;;;;;6.03;3.28;;;;;;;10.57;33.06;95024.56;5038592;28;20281;-68
2022/04/11 11:35:59;;;;;;;2.80;2.60;;;;;;;10.86;33.00;95025.31;5035468;28;20279;-66
2022/04/11 11:38:30;;;;;;;3.55;3.20;;;;;;;10.69;32.74;95021.69;5045890;28;20260;-68
2022/04/11 11:41:00;;;;;;;3.97;3.07;;;;;;;10.19;34.05;95033.56;5036156;28;20253;-60